createdAt,value
2018-06-13T00:05:45.557Z,14.10
2018-06-13T00:11:13.176Z,13.60
2018-06-13T00:20:41.437Z,13.60
2018-06-13T00:27:08.011Z,13.60
2018-06-13T00:29:38.313Z,13.60
2018-06-13T00:57:43.852Z,13.80
2018-06-13T01:02:24.306Z,13.80
2018-06-13T01:18:01.641Z,14.10
2018-06-13T01:30:13.742Z,13.90
2018-06-13T01:36:05.971Z,14.10
2018-06-13T01:47:22.929Z,14.10
2018-06-13T01:56:15.927Z,14.60
2018-06-13T02:01:45.872Z,14.10
2018-06-13T02:07:47.885Z,14.60
2018-06-13T02:10:18.242Z,14.30
2018-06-13T02:12:48.640Z,14.30
2018-06-13T02:18:32.144Z,14.40
2018-06-13T02:21:02.404Z,14.10
2018-06-13T02:30:18.889Z,13.70
2018-06-13T02:38:54.209Z,13.90
2018-06-13T02:41:51.800Z,13.80
2018-06-13T02:47:31.738Z,13.60
2018-06-13T02:50:01.749Z,13.80
2018-06-13T02:52:31.951Z,13.70
2018-06-13T02:55:11.304Z,13.80
2018-06-13T02:57:41.404Z,13.80
2018-06-13T03:02:55.324Z,13.90
2018-06-13T03:09:21.703Z,13.80
2018-06-13T03:18:25.504Z,13.90
2018-06-13T03:20:57.920Z,13.80
2018-06-13T03:23:58.207Z,14.00
2018-06-13T03:30:16.716Z,13.90
2018-06-13T03:39:09.656Z,14.10
2018-06-13T03:47:40.536Z,13.80
2018-06-13T03:53:16.707Z,14.10
2018-06-13T04:00:12.680Z,14.20
2018-06-13T04:02:42.768Z,14.00
2018-06-13T04:11:06.182Z,13.70
2018-06-13T04:13:36.227Z,13.70
2018-06-13T04:16:13.243Z,13.70
2018-06-13T04:26:43.781Z,14.10
2018-06-13T04:36:21.321Z,14.00
2018-06-13T04:42:01.563Z,14.50
2018-06-13T04:44:31.569Z,14.50
2018-06-13T04:47:07.877Z,14.40
2018-06-13T04:49:37.934Z,14.30
2018-06-13T04:52:08.135Z,14.20
2018-06-13T04:54:38.563Z,14.20
2018-06-13T04:57:27.377Z,14.20
2018-06-13T05:03:07.036Z,14.20
2018-06-13T05:05:37.126Z,14.20
2018-06-13T05:11:17.501Z,14.20
2018-06-13T05:13:47.602Z,14.30
2018-06-13T05:22:26.995Z,14.70
2018-06-13T05:34:42.440Z,14.30
2018-06-13T05:37:41.221Z,14.40
2018-06-13T05:40:11.512Z,14.50
2018-06-13T05:42:41.804Z,14.40
2018-06-13T05:45:36.270Z,14.60
2018-06-13T05:48:06.308Z,14.70
2018-06-13T05:50:36.343Z,14.80
2018-06-13T05:53:28.955Z,14.70
2018-06-13T05:59:22.559Z,14.80
2018-06-13T06:05:02.435Z,14.70
2018-06-13T06:07:33.578Z,14.90
2018-06-13T06:10:27.985Z,15.00
2018-06-13T07:25:45.036Z,15.40
2018-06-13T07:32:22.883Z,15.50
2018-06-13T07:35:20.055Z,15.70
2018-06-13T07:42:51.843Z,15.80
2018-06-13T07:46:39.695Z,15.80
2018-06-13T08:05:49.237Z,16.20
2018-06-13T08:13:37.792Z,16.30
2018-06-13T08:28:51.408Z,16.10
2018-06-13T09:26:09.326Z,15.70
2018-06-13T09:34:42.139Z,15.70
2018-06-13T09:37:12.399Z,15.80
2018-06-13T09:42:40.461Z,15.80
2018-06-13T09:45:37.997Z,15.90
2018-06-13T09:51:40.199Z,15.70
2018-06-13T10:03:21.098Z,16.60
2018-06-13T10:16:01.832Z,16.90
2018-06-13T10:18:32.855Z,17.10
2018-06-13T10:21:03.598Z,17.20
2018-06-13T10:23:51.766Z,17.40
2018-06-13T10:26:33.093Z,17.40
2018-06-13T10:29:03.160Z,17.40
2018-06-13T10:31:39.931Z,17.60
2018-06-13T10:34:10.906Z,17.90
2018-06-13T10:43:07.558Z,17.90
2018-06-13T10:57:17.394Z,17.90
2018-06-13T11:07:45.120Z,17.70
2018-06-13T11:16:35.646Z,17.40
2018-06-13T11:20:14.362Z,17.20
2018-06-13T11:26:26.011Z,17.00
2018-06-13T11:32:01.167Z,17.20
2018-06-13T11:34:31.279Z,17.30
2018-06-13T11:43:16.483Z,17.30
2018-06-13T11:46:10.535Z,17.50
2018-06-13T11:52:42.039Z,17.80
2018-06-13T11:55:35.861Z,17.90
2018-06-13T12:11:29.532Z,18.20
2018-06-13T12:49:01.212Z,18.70
2018-06-13T16:35:53.580Z,18.00
2018-06-13T16:38:25.062Z,18.50
2018-06-13T16:40:59.167Z,18.50
2018-06-13T16:43:32.095Z,18.20
2018-06-13T16:46:02.297Z,18.10
2018-06-13T16:48:32.507Z,18.20
2018-06-13T16:51:19.225Z,18.20
2018-06-13T16:54:03.519Z,18.30
2018-06-13T16:56:33.499Z,18.30
2018-06-13T16:59:03.395Z,18.50
2018-06-13T17:01:33.238Z,18.40
2018-06-13T17:06:32.623Z,18.40
2018-06-13T17:09:02.583Z,18.40
2018-06-13T17:11:32.448Z,18.40
2018-06-13T17:14:02.563Z,18.30
2018-06-13T17:16:32.537Z,18.30
2018-06-13T17:19:02.440Z,18.30
2018-06-13T17:21:32.750Z,18.00
2018-06-13T17:24:04.603Z,18.20
2018-06-13T17:27:59.664Z,18.10
2018-06-13T17:30:36.743Z,18.10
2018-06-13T17:33:12.875Z,18.00
2018-06-13T17:35:47.969Z,18.00
2018-06-13T17:41:00.379Z,17.90
2018-06-13T17:43:34.655Z,18.10
2018-06-13T17:51:32.191Z,17.60
2018-06-13T17:54:02.178Z,17.80
2018-06-13T17:56:32.120Z,17.70
2018-06-13T18:02:04.490Z,17.60
2018-06-13T18:05:04.454Z,17.50
2018-06-13T18:07:34.323Z,17.40
2018-06-13T18:10:21.545Z,17.40
2018-06-13T18:12:55.880Z,17.40
2018-06-13T18:20:18.552Z,17.50
2018-06-13T18:23:05.044Z,17.50
2018-06-13T18:34:25.293Z,17.30
2018-06-13T18:37:05.390Z,17.20
2018-06-13T18:39:35.298Z,17.20
2018-06-13T18:42:05.918Z,17.10
2018-06-13T18:44:36.125Z,17.00
2018-06-13T18:47:06.105Z,16.90
2018-06-13T18:49:38.740Z,16.80
2018-06-13T18:55:56.723Z,16.80
2018-06-13T19:07:34.983Z,16.70
2018-06-13T19:10:05.013Z,17.10
2018-06-13T19:12:34.867Z,17.40
2018-06-13T19:15:05.549Z,17.50
2018-06-13T19:20:33.045Z,17.30
2018-06-13T19:23:02.714Z,17.00
2018-06-13T19:25:35.871Z,16.40
2018-06-13T19:28:07.015Z,16.20
2018-06-13T19:33:14.756Z,16.00
2018-06-13T19:35:50.520Z,15.80
2018-06-13T19:38:29.427Z,15.60
2018-06-13T19:40:59.441Z,15.30
2018-06-13T19:43:36.330Z,15.30
2018-06-13T19:46:06.258Z,15.60
2018-06-13T19:48:45.896Z,15.30
2018-06-13T19:51:15.659Z,15.40
2018-06-13T19:53:55.517Z,15.40
2018-06-13T19:56:30.191Z,15.10
2018-06-13T19:59:00.363Z,14.90
2018-06-13T20:01:30.351Z,14.70
2018-06-13T20:04:05.530Z,15.30
2018-06-13T20:06:38.502Z,15.20
2018-06-13T20:09:12.074Z,15.10
2018-06-13T20:11:41.995Z,14.80
2018-06-13T20:14:16.799Z,15.20
2018-06-13T20:16:54.359Z,15.40
2018-06-13T20:19:29.277Z,15.60
2018-06-13T20:22:00.211Z,15.20
2018-06-13T20:24:36.036Z,14.80
2018-06-13T20:27:11.207Z,14.50
2018-06-13T20:29:46.046Z,14.50
2018-06-13T20:32:16.064Z,14.20
2018-06-13T20:34:46.041Z,14.40
2018-06-13T20:37:16.003Z,14.50
2018-06-13T20:39:45.849Z,14.60
2018-06-13T20:42:27.899Z,14.30
2018-06-13T20:45:01.854Z,14.20
2018-06-13T20:47:34.057Z,14.20
2018-06-13T20:50:03.965Z,13.90
2018-06-13T20:52:34.317Z,13.80
2018-06-13T20:55:04.280Z,13.60
2018-06-13T20:57:35.305Z,13.40
2018-06-13T21:00:07.118Z,14.00
2018-06-13T21:02:38.597Z,14.40
2018-06-13T21:05:09.015Z,14.20
2018-06-13T21:07:39.001Z,13.90
2018-06-13T21:10:09.068Z,14.10
2018-06-13T21:12:39.140Z,14.40
2018-06-13T21:15:13.012Z,14.20
2018-06-13T21:17:43.578Z,13.80
2018-06-13T21:20:15.847Z,13.40
2018-06-13T21:22:47.859Z,13.80
2018-06-13T21:25:18.446Z,14.00
2018-06-13T21:27:48.770Z,13.60
2018-06-13T21:30:18.816Z,13.20
2018-06-13T21:32:48.863Z,13.10
2018-06-13T21:35:18.842Z,13.10
2018-06-13T21:37:48.772Z,13.00
2018-06-13T21:40:18.868Z,12.70
2018-06-13T21:42:48.738Z,12.60
2018-06-13T21:45:18.810Z,13.10
2018-06-13T21:47:48.681Z,13.20
2018-06-13T21:50:18.676Z,13.40
2018-06-13T21:52:48.543Z,13.70
2018-06-13T21:55:18.881Z,13.60
2018-06-13T21:57:49.611Z,13.50
2018-06-13T22:00:19.623Z,13.10
2018-06-13T22:02:49.378Z,12.90
2018-06-13T22:05:19.254Z,12.90
2018-06-13T22:07:49.090Z,13.00
2018-06-13T22:10:19.344Z,13.10
2018-06-13T22:12:49.584Z,13.20
2018-06-13T22:18:06.002Z,12.60
2018-06-13T22:20:35.942Z,12.40
2018-06-13T22:23:05.911Z,12.10
2018-06-13T22:25:35.748Z,12.00
2018-06-13T22:28:05.750Z,12.10
2018-06-13T22:30:35.461Z,12.10
2018-06-13T22:33:05.326Z,12.70
2018-06-13T22:35:37.828Z,12.60
2018-06-13T22:40:37.142Z,12.30
2018-06-13T22:43:07.090Z,12.70
2018-06-13T22:45:55.640Z,13.20
2018-06-13T22:48:26.386Z,13.30
2018-06-13T22:50:56.874Z,13.50
2018-06-13T22:53:27.472Z,13.10
2018-06-13T22:55:57.876Z,12.60
2018-06-13T22:58:27.794Z,12.10
2018-06-13T23:01:08.044Z,11.90
2018-06-13T23:03:37.766Z,11.60
2018-06-13T23:06:08.924Z,11.50
2018-06-13T23:08:39.814Z,11.50
2018-06-13T23:11:09.790Z,11.70
2018-06-13T23:13:39.924Z,11.50
2018-06-13T23:16:09.714Z,11.50
2018-06-13T23:18:40.057Z,11.80
2018-06-13T23:21:09.983Z,12.00
2018-06-13T23:23:39.910Z,11.80
2018-06-13T23:26:09.883Z,11.90
2018-06-13T23:28:39.685Z,12.00
2018-06-13T23:31:09.559Z,11.80
2018-06-13T23:33:39.495Z,11.80
2018-06-13T23:36:09.370Z,12.10
2018-06-13T23:38:39.283Z,12.00
2018-06-13T23:41:09.151Z,11.60
2018-06-13T23:43:38.999Z,11.60
2018-06-13T23:46:08.826Z,11.60
2018-06-13T23:48:39.480Z,11.30
2018-06-13T23:51:09.511Z,11.40
2018-06-13T23:53:39.971Z,11.50
2018-06-13T23:56:10.914Z,11.30
2018-06-13T23:58:41.723Z,11.20
